Time;durP1;ratioP1;P1;durP2;ratioP2;P2;SDS_P1;SDS_P2;PMS_P1;PMS_P2;Temp;Humidity;BMP_temperature;BMP_pressure;BME280_temperature;BME280_humidity;BME280_pressure;Samples;Min_cycle;Max_cycle;Signal;HPM_P1;HPM_P2
2022/11/18 00:02:19;;;;;;;21.88;13.73;;;;;;;5.48;100.00;97300.47;4894704;29;20103;-83
2022/11/18 00:05:06;;;;;;;25.83;14.43;;;;;;;5.70;100.00;97310.16;4878673;29;20032;-83
2022/11/18 00:07:51;;;;;;;25.67;14.27;;;;;;;5.73;100.00;97309.91;4895393;29;20106;-85
2022/11/18 00:10:38;;;;;;;23.33;14.38;;;;;;;5.81;100.00;97306.75;4882071;29;20291;-82
2022/11/18 00:16:27;;;;;;;23.63;13.68;;;;;;;5.70;100.00;97304.94;4893771;29;20051;-81
2022/11/18 00:19:12;;;;;;;24.23;13.90;;;;;;;5.74;100.00;97311.59;4881240;29;20111;-82
2022/11/18 00:21:57;;;;;;;23.40;13.63;;;;;;;5.82;100.00;97300.66;4866292;29;20060;-83
2022/11/18 00:24:42;;;;;;;24.35;14.60;;;;;;;5.78;100.00;97300.03;4891257;29;20512;-83
2022/11/18 00:27:32;;;;;;;25.65;15.50;;;;;;;5.84;100.00;97305.72;4855796;29;20124;-83
2022/11/18 00:30:19;;;;;;;25.38;16.35;;;;;;;5.88;100.00;97296.75;4921150;23;20062;-82
2022/11/18 00:33:04;;;;;;;29.08;17.08;;;;;;;5.76;100.00;97293.28;4917347;29;20117;-84
2022/11/18 00:35:54;;;;;;;31.33;16.92;;;;;;;5.85;100.00;97286.59;4910835;29;20074;-82
2022/11/18 00:38:40;;;;;;;27.70;16.25;;;;;;;5.90;100.00;97293.13;4914171;29;20079;-81
2022/11/18 00:42:49;;;;;;;29.02;17.30;;;;;;;5.86;100.00;97289.06;4925486;29;20062;-83
2022/11/18 00:44:31;;;;;;;27.45;16.90;;;;;;;5.75;100.00;97291.63;4906846;29;20144;-84
2022/11/18 00:47:16;;;;;;;28.80;16.80;;;;;;;5.79;100.00;97285.28;4891093;29;20056;-84
2022/11/18 00:50:02;;;;;;;30.85;19.10;;;;;;;5.91;100.00;97297.38;4880963;29;20047;-83
2022/11/18 00:52:46;;;;;;;33.30;20.20;;;;;;;5.85;100.00;97283.97;4894472;29;20159;-81
2022/11/18 00:55:31;;;;;;;28.13;17.58;;;;;;;5.94;100.00;97296.31;4910373;29;20052;-84
2022/11/18 00:58:16;;;;;;;29.38;16.40;;;;;;;5.71;100.00;97306.63;4892453;29;20067;-83
2022/11/18 01:01:04;;;;;;;24.98;15.48;;;;;;;5.74;100.00;97306.41;4876148;29;20068;-83
2022/11/18 01:03:55;;;;;;;23.55;15.23;;;;;;;5.99;100.00;97294.19;4883191;29;20037;-82
2022/11/18 01:06:40;;;;;;;24.27;14.80;;;;;;;5.97;100.00;97305.66;4909779;29;20483;-82
2022/11/18 01:09:24;;;;;;;27.58;15.93;;;;;;;5.79;100.00;97296.47;4892586;29;20052;-82
2022/11/18 01:15:14;;;;;;;27.42;15.48;;;;;;;5.62;100.00;97282.13;4907563;29;20040;-84
2022/11/18 01:17:59;;;;;;;26.88;14.63;;;;;;;5.41;100.00;97281.88;4905067;29;20162;-83
2022/11/18 01:20:46;;;;;;;24.20;15.07;;;;;;;5.48;100.00;97274.50;4921744;29;20158;-84
2022/11/18 01:23:32;;;;;;;25.52;13.80;;;;;;;5.35;100.00;97261.53;4882678;29;20391;-82
2022/11/18 01:26:17;;;;;;;25.48;14.15;;;;;;;5.59;100.00;97258.97;4888983;29;20051;-83
2022/11/18 01:29:01;;;;;;;23.30;12.93;;;;;;;5.44;100.00;97263.47;4881615;29;20054;-83
2022/11/18 01:31:46;;;;;;;26.10;13.93;;;;;;;5.45;100.00;97257.34;4894293;29;20663;-83
2022/11/18 01:34:31;;;;;;;26.08;14.68;;;;;;;5.64;100.00;97253.44;4893479;29;20065;-83
2022/11/18 01:37:16;;;;;;;29.45;15.48;;;;;;;5.55;100.00;97260.94;4905344;29;20068;-82
2022/11/18 01:40:01;;;;;;;32.05;16.23;;;;;;;5.50;100.00;97260.44;4883131;29;20796;-83
2022/11/18 01:42:46;;;;;;;30.83;15.90;;;;;;;5.43;100.00;97259.22;4903001;29;20059;-81
2022/11/18 01:45:36;;;;;;;27.98;15.13;;;;;;;5.76;100.00;97259.50;4915537;29;20069;-82
2022/11/18 01:48:30;;;;;;;26.92;15.35;;;;;;;5.89;100.00;97260.25;4910021;29;20043;-83
2022/11/18 01:51:18;;;;;;;30.77;16.80;;;;;;;5.87;100.00;97243.97;4896034;29;20127;-82
2022/11/18 01:54:07;;;;;;;28.42;15.40;;;;;;;5.57;100.00;97239.22;4909193;29;20045;-83
2022/11/18 01:56:56;;;;;;;31.77;15.68;;;;;;;5.55;100.00;97224.56;4893088;29;20040;-82
2022/11/18 01:59:42;;;;;;;28.63;15.15;;;;;;;5.36;100.00;97226.84;4897645;29;20206;-83
2022/11/18 02:02:31;;;;;;;30.20;15.30;;;;;;;5.57;100.00;97237.44;4900447;29;20044;-82
2022/11/18 02:05:17;;;;;;;28.98;14.77;;;;;;;5.75;100.00;97230.09;4891251;29;20047;-83
2022/11/18 02:08:04;;;;;;;30.30;16.42;;;;;;;5.66;100.00;97228.97;4898522;29;20036;-83
2022/11/18 02:10:49;;;;;;;31.52;15.93;;;;;;;5.64;100.00;97225.69;4901744;29;20040;-83
2022/11/18 02:13:49;;;;;;;31.95;16.15;;;;;;;5.68;100.00;97228.88;4898909;29;20502;-82
2022/11/18 02:16:43;;;;;;;28.67;16.40;;;;;;;5.68;100.00;97234.06;4883921;29;20045;-82
2022/11/18 02:19:48;;;;;;;30.65;16.25;;;;;;;5.58;100.00;97236.50;4894604;29;20037;-83
2022/11/18 02:22:59;;;;;;;31.02;16.17;;;;;;;5.57;100.00;97234.84;4882623;29;20471;-82
2022/11/18 02:26:27;;;;;;;30.00;16.83;;;;;;;5.72;100.00;97245.91;4898339;29;20100;-83
2022/11/18 02:29:21;;;;;;;32.20;16.10;;;;;;;5.72;100.00;97256.31;4933189;29;20032;-83
2022/11/18 02:32:22;;;;;;;34.00;16.80;;;;;;;5.92;100.00;97270.41;4908208;29;20091;-84
2022/11/18 02:35:15;;;;;;;29.42;15.57;;;;;;;6.06;100.00;97263.41;4899204;29;20036;-82
2022/11/18 02:38:12;;;;;;;26.20;14.52;;;;;;;6.16;100.00;97264.41;4891477;29;20136;-83
2022/11/18 02:41:07;;;;;;;26.27;14.70;;;;;;;6.22;100.00;97264.91;4909841;29;20104;-85
2022/11/18 02:43:58;;;;;;;26.52;14.02;;;;;;;6.25;100.00;97255.06;4908322;29;20126;-85
2022/11/18 02:46:48;;;;;;;23.55;14.38;;;;;;;6.08;100.00;97258.94;4909988;29;20087;-82
2022/11/18 02:49:41;;;;;;;22.73;13.13;;;;;;;5.89;100.00;97249.84;4910490;29;20040;-83
2022/11/18 02:52:26;;;;;;;19.88;11.50;;;;;;;5.85;100.00;97234.59;4895363;29;20289;-83
2022/11/18 02:55:13;;;;;;;21.08;11.93;;;;;;;5.96;100.00;97233.81;4895727;29;20084;-83
2022/11/18 02:57:59;;;;;;;20.67;12.52;;;;;;;5.94;100.00;97223.50;4895034;29;20509;-84
2022/11/18 03:00:44;;;;;;;20.13;11.63;;;;;;;5.83;100.00;97229.53;4880086;29;20044;-83
2022/11/18 03:03:34;;;;;;;20.17;11.98;;;;;;;5.71;100.00;97222.63;4898519;29;20059;-84
2022/11/18 03:06:36;;;;;;;22.48;12.65;;;;;;;5.64;100.00;97217.03;4908890;29;20127;-85
2022/11/18 03:09:35;;;;;;;25.55;13.93;;;;;;;5.55;100.00;97192.56;4904192;29;20040;-83
2022/11/18 03:13:01;;;;;;;23.15;13.50;;;;;;;5.57;100.00;97200.22;4897654;29;22377;-83
2022/11/18 03:16:01;;;;;;;26.73;15.20;;;;;;;5.51;100.00;97198.94;4839074;29;20065;-83
2022/11/18 03:19:08;;;;;;;26.92;14.80;;;;;;;5.69;100.00;97193.31;4840984;29;20071;-83
2022/11/18 03:22:06;;;;;;;26.77;14.40;;;;;;;5.43;100.00;97182.13;4824832;29;20165;-85
2022/11/18 03:24:59;;;;;;;29.13;15.25;;;;;;;5.35;100.00;97194.03;4827326;29;20225;-83
2022/11/18 03:28:03;;;;;;;25.42;14.52;;;;;;;5.47;100.00;97184.53;4829542;29;20137;-83
2022/11/18 03:31:32;;;;;;;32.08;16.85;;;;;;;5.39;100.00;97178.09;4824018;29;20061;-83
2022/11/18 03:34:34;;;;;;;32.38;17.35;;;;;;;5.62;100.00;97183.38;4792618;29;20062;-84
2022/11/18 03:37:24;;;;;;;35.38;17.67;;;;;;;5.42;100.00;97190.03;4773242;29;20563;-83
2022/11/18 03:40:19;;;;;;;36.80;18.48;;;;;;;5.21;100.00;97188.03;4785830;29;20089;-83
2022/11/18 03:43:10;;;;;;;35.35;17.65;;;;;;;5.29;100.00;97187.47;4786452;29;20066;-83
2022/11/18 03:46:03;;;;;;;33.58;17.70;;;;;;;5.33;100.00;97188.09;4786176;29;20057;-83
2022/11/18 03:48:54;;;;;;;34.90;17.35;;;;;;;5.08;100.00;97193.28;4796791;29;20138;-83
2022/11/18 03:51:47;;;;;;;33.05;17.17;;;;;;;5.25;100.00;97204.25;4830051;29;20118;-83
2022/11/18 03:54:35;;;;;;;35.63;18.10;;;;;;;5.32;100.00;97197.66;4836122;29;20128;-83
2022/11/18 03:57:24;;;;;;;34.40;18.17;;;;;;;5.37;100.00;97194.75;4812529;29;20430;-83
2022/11/18 04:00:13;;;;;;;39.15;19.13;;;;;;;5.29;100.00;97201.31;4838886;29;20078;-83
2022/11/18 04:02:57;;;;;;;44.20;20.52;;;;;;;5.09;100.00;97196.72;4835697;29;20498;-81
2022/11/18 04:05:42;;;;;;;46.33;21.80;;;;;;;4.96;100.00;97192.38;4823289;29;20088;-82
2022/11/18 04:08:34;;;;;;;44.42;21.25;;;;;;;4.91;100.00;97191.91;4840071;29;20049;-80
2022/11/18 04:14:40;;;;;;;40.85;21.30;;;;;;;4.86;100.00;97186.19;4893661;29;20092;-83
2022/11/18 04:17:27;;;;;;;41.58;20.77;;;;;;;4.98;100.00;97174.13;4882369;29;20075;-84
2022/11/18 04:20:16;;;;;;;33.33;18.30;;;;;;;5.02;100.00;97179.00;4895146;29;20040;-83
2022/11/18 04:23:01;;;;;;;34.20;18.48;;;;;;;5.10;100.00;97180.19;4905265;29;20144;-84
2022/11/18 04:25:46;;;;;;;32.28;19.20;;;;;;;4.93;100.00;97177.03;4880797;29;20036;-87
2022/11/18 04:28:31;;;;;;;29.10;17.33;;;;;;;4.86;100.00;97166.28;4879506;29;20046;-84
2022/11/18 04:31:16;;;;;;;27.27;17.52;;;;;;;4.77;100.00;97178.13;4875538;29;20060;-85
2022/11/18 04:34:01;;;;;;;28.20;18.02;;;;;;;4.95;100.00;97175.16;4861129;29;20053;-85
2022/11/18 04:36:46;;;;;;;30.35;17.73;;;;;;;4.95;100.00;97172.56;4871512;29;20501;-85
2022/11/18 04:39:30;;;;;;;30.02;17.77;;;;;;;5.03;100.00;97172.00;4893359;23;20037;-82
2022/11/18 04:42:15;;;;;;;24.30;16.17;;;;;;;4.76;100.00;97160.06;4877446;29;20148;-83
2022/11/18 04:45:00;;;;;;;23.77;14.73;;;;;;;4.71;100.00;97162.16;4861990;29;20041;-81
2022/11/18 04:47:44;;;;;;;22.70;14.57;;;;;;;5.04;100.00;97174.50;4870905;29;20068;-81
2022/11/18 04:50:30;;;;;;;24.90;15.30;;;;;;;5.28;100.00;97173.69;4874904;29;20048;-83
2022/11/18 04:53:15;;;;;;;21.35;13.90;;;;;;;5.13;100.00;97161.78;4886064;29;20489;-84
2022/11/18 04:56:05;;;;;;;21.73;14.60;;;;;;;5.03;100.00;97156.44;4882935;29;20651;-83
2022/11/18 04:58:51;;;;;;;21.58;13.32;;;;;;;5.04;100.00;97169.31;4875098;29;20111;-82
2022/11/18 05:01:36;;;;;;;21.73;13.25;;;;;;;5.33;100.00;97175.94;4886607;29;20526;-82
2022/11/18 05:04:24;;;;;;;21.58;13.07;;;;;;;5.37;100.00;97167.00;4884453;29;20092;-82
2022/11/18 05:07:13;;;;;;;22.10;13.07;;;;;;;5.38;100.00;97176.44;4882186;29;20036;-82
2022/11/18 05:09:58;;;;;;;22.30;13.55;;;;;;;5.12;100.00;97170.53;4878068;29;20045;-81
2022/11/18 05:12:49;;;;;;;28.45;14.30;;;;;;;5.03;100.00;97172.84;4874220;29;20060;-83
2022/11/18 05:15:33;;;;;;;26.40;16.17;;;;;;;5.20;100.00;97172.56;4886075;29;20191;-82
2022/11/18 05:18:18;;;;;;;27.48;16.05;;;;;;;5.22;100.00;97176.75;4868233;29;20041;-83
2022/11/18 05:21:06;;;;;;;24.38;14.23;;;;;;;5.01;100.00;97173.91;4881810;29;20040;-82
2022/11/18 05:23:51;;;;;;;25.20;15.18;;;;;;;5.11;100.00;97189.66;4858843;29;20052;-83
2022/11/18 05:26:36;;;;;;;27.80;14.10;;;;;;;5.02;100.00;97186.78;4862108;29;20073;-84
2022/11/18 05:29:21;;;;;;;25.08;14.70;;;;;;;5.33;100.00;97181.16;4872944;29;20427;-83
2022/11/18 05:32:06;;;;;;;21.77;13.57;;;;;;;5.07;100.00;97178.66;4859152;29;20438;-84
2022/11/18 05:34:52;;;;;;;25.90;13.88;;;;;;;5.17;100.00;97179.63;4874687;29;20045;-83
2022/11/18 05:37:36;;;;;;;24.35;14.73;;;;;;;6.62;100.00;97188.19;4864539;29;20072;-84
2022/11/18 05:40:21;;;;;;;23.60;14.50;;;;;;;5.96;100.00;97180.03;4885631;29;20448;-84
2022/11/18 05:43:11;;;;;;;23.17;13.65;;;;;;;5.57;100.00;97172.50;4874552;29;20045;-84
2022/11/18 05:45:59;;;;;;;24.15;14.73;;;;;;;5.33;100.00;97175.13;4860925;29;20391;-83
2022/11/18 05:48:43;;;;;;;22.58;15.15;;;;;;;4.93;100.00;97177.03;4874288;29;20123;-82
2022/11/18 05:51:29;;;;;;;25.30;15.23;;;;;;;4.97;100.00;97170.69;4861348;29;20051;-82
2022/11/18 05:54:16;;;;;;;26.67;15.50;;;;;;;5.06;100.00;97182.16;4860585;29;20057;-81
2022/11/18 05:57:00;;;;;;;32.17;16.77;;;;;;;5.17;100.00;97171.84;4870473;29;20083;-83
2022/11/18 05:59:45;;;;;;;31.52;17.65;;;;;;;4.97;100.00;97173.28;4872361;29;20041;-82
2022/11/18 06:02:30;;;;;;;34.20;17.33;;;;;;;5.10;100.00;97169.81;4891743;29;20047;-82
2022/11/18 06:05:17;;;;;;;34.58;18.60;;;;;;;5.01;100.00;97171.31;4867847;29;20121;-81
2022/11/18 06:08:03;;;;;;;42.17;22.20;;;;;;;5.13;100.00;97164.41;4867109;29;20132;-83
2022/11/18 06:10:52;;;;;;;42.10;21.10;;;;;;;5.05;100.00;97152.81;4889479;29;20041;-88
2022/11/18 06:13:49;;;;;;;46.28;22.40;;;;;;;4.97;100.00;97147.34;4869270;29;20063;-82
2022/11/18 06:16:36;;;;;;;49.58;22.38;;;;;;;5.12;100.00;97152.38;4877224;29;20045;-84
2022/11/18 06:19:24;;;;;;;45.97;22.77;;;;;;;5.09;100.00;97147.41;4847432;29;20049;-83
2022/11/18 06:22:11;;;;;;;46.17;21.85;;;;;;;5.12;100.00;97162.75;4875577;29;20680;-85
2022/11/18 06:24:57;;;;;;;45.50;23.02;;;;;;;5.17;100.00;97165.84;4885692;29;20063;-83
2022/11/18 06:27:42;;;;;;;48.40;23.17;;;;;;;5.36;100.00;97178.31;4862280;29;20045;-84
2022/11/18 06:30:28;;;;;;;50.38;22.25;;;;;;;5.09;100.00;97176.78;4877153;29;20362;-84
2022/11/18 06:33:13;;;;;;;49.85;23.33;;;;;;;4.82;100.00;97170.00;4862567;29;20071;-85
2022/11/18 06:36:01;;;;;;;52.50;22.50;;;;;;;5.14;100.00;97172.06;4855211;29;20748;-86
2022/11/18 06:38:46;;;;;;;48.05;21.13;;;;;;;5.12;100.00;97165.34;4851868;29;20107;-84
2022/11/18 06:41:35;;;;;;;49.00;21.73;;;;;;;5.10;100.00;97159.44;4877199;29;20056;-84
2022/11/18 06:44:20;;;;;;;46.60;22.08;;;;;;;5.04;100.00;97165.91;4866195;29;20100;-84
2022/11/18 06:47:09;;;;;;;53.35;24.00;;;;;;;5.03;100.00;97162.47;4875080;29;20794;-83
2022/11/18 06:49:54;;;;;;;47.50;23.05;;;;;;;5.10;100.00;97162.03;4867679;29;20086;-84
2022/11/18 06:52:46;;;;;;;45.85;21.30;;;;;;;5.24;100.00;97179.22;4909926;29;20084;-81
2022/11/18 06:55:31;;;;;;;42.67;20.23;;;;;;;5.44;100.00;97180.34;4900993;29;20037;-84
2022/11/18 06:58:16;;;;;;;41.97;21.00;;;;;;;5.45;100.00;97191.59;4900918;29;20040;-83
2022/11/18 07:01:34;;;;;;;41.70;20.23;;;;;;;5.34;100.00;97202.75;4883221;29;20049;-85
2022/11/18 07:04:20;;;;;;;43.33;19.65;;;;;;;5.39;100.00;97213.63;4880362;29;20059;-83
2022/11/18 07:07:09;;;;;;;54.30;21.65;;;;;;;5.45;100.00;97218.38;4864551;29;20072;-87
2022/11/18 07:09:54;;;;;;;49.03;21.10;;;;;;;5.38;100.00;97222.38;4864072;29;20473;-85
2022/11/18 07:12:38;;;;;;;58.67;20.42;;;;;;;5.55;100.00;97214.19;4863168;29;20052;-82
2022/11/18 07:15:23;;;;;;;46.55;20.42;;;;;;;5.64;100.00;97212.69;4860083;29;20048;-86
2022/11/18 07:18:08;;;;;;;41.30;18.45;;;;;;;5.56;100.00;97209.81;4859732;29;20144;-84
2022/11/18 07:20:53;;;;;;;46.15;19.25;;;;;;;5.38;100.00;97209.38;4863984;29;20059;-86
2022/11/18 07:23:38;;;;;;;43.80;20.30;;;;;;;5.37;100.00;97211.13;4844118;29;20185;-87
2022/11/18 07:26:28;;;;;;;44.92;19.52;;;;;;;5.31;100.00;97198.59;4864116;29;20099;-82
2022/11/18 07:29:13;;;;;;;42.35;20.33;;;;;;;5.27;100.00;97195.38;4845759;29;20049;-78
2022/11/18 07:31:57;;;;;;;42.55;19.88;;;;;;;5.13;100.00;97177.38;4848076;29;20041;-81
2022/11/18 07:34:43;;;;;;;47.72;18.05;;;;;;;4.96;100.00;97182.00;4862192;29;20053;-85
2022/11/18 07:37:28;;;;;;;43.53;19.02;;;;;;;4.84;100.00;97182.88;4889985;29;20068;-80
2022/11/18 07:40:13;;;;;;;42.67;18.13;;;;;;;4.71;100.00;97186.34;4878537;29;20056;-80
2022/11/18 07:42:58;;;;;;;38.40;18.00;;;;;;;4.90;100.00;97177.25;4859954;29;20159;-81
2022/11/18 07:45:42;;;;;;;40.75;18.30;;;;;;;5.01;100.00;97179.09;4875912;29;20525;-79
2022/11/18 07:48:28;;;;;;;36.58;18.05;;;;;;;4.90;100.00;97179.84;4861310;29;20045;-79
2022/11/18 07:51:14;;;;;;;38.25;17.80;;;;;;;5.05;100.00;97181.38;4873462;29;20068;-79
2022/11/18 07:54:00;;;;;;;37.85;18.63;;;;;;;5.08;100.00;97182.06;4862064;29;20055;-80
2022/11/18 07:56:44;;;;;;;39.45;17.13;;;;;;;5.12;100.00;97173.13;4877548;29;20044;-81
2022/11/18 07:59:29;;;;;;;41.22;18.27;;;;;;;5.07;100.00;97170.03;4898543;29;20105;-79
2022/11/18 08:02:14;;;;;;;34.72;17.45;;;;;;;4.84;100.00;97175.09;4887852;29;20132;-82
2022/11/18 08:04:58;;;;;;;38.53;17.83;;;;;;;4.87;100.00;97173.13;4877535;29;20096;-82
2022/11/18 08:07:43;;;;;;;35.80;17.63;;;;;;;4.81;100.00;97176.94;4875367;29;20044;-77
2022/11/18 08:10:28;;;;;;;39.15;18.00;;;;;;;4.75;100.00;97184.38;4883736;29;20040;-80
2022/11/18 08:13:13;;;;;;;36.28;16.60;;;;;;;4.99;100.00;97186.16;4876122;29;20053;-80
2022/11/18 08:15:58;;;;;;;31.20;15.38;;;;;;;4.73;100.00;97187.06;4888503;29;20145;-78
2022/11/18 08:18:43;;;;;;;31.38;16.00;;;;;;;5.02;100.00;97172.97;4872694;29;20041;-80
2022/11/18 08:21:27;;;;;;;36.40;16.00;;;;;;;4.79;100.00;97167.63;4874562;29;20041;-80
2022/11/18 08:24:12;;;;;;;35.80;17.52;;;;;;;4.67;100.00;97175.34;4872223;29;20049;-79
2022/11/18 08:26:57;;;;;;;32.22;16.35;;;;;;;4.77;100.00;97175.53;4874911;29;20053;-80
2022/11/18 08:29:42;;;;;;;30.35;14.68;;;;;;;4.91;100.00;97165.94;4858042;29;20052;-81
2022/11/18 08:32:27;;;;;;;33.20;13.38;;;;;;;6.29;100.00;97169.84;4842513;29;20064;-79
2022/11/18 08:35:11;;;;;;;33.45;14.93;;;;;;;7.25;100.00;97173.75;4827114;29;20068;-81
2022/11/18 08:37:57;;;;;;;28.20;13.30;;;;;;;6.25;100.00;97173.63;4853115;29;20120;-82
2022/11/18 08:40:45;;;;;;;41.38;19.08;;;;;;;5.72;100.00;97174.91;4842606;29;20133;-80
2022/11/18 08:43:29;;;;;;;32.38;16.00;;;;;;;5.60;100.00;97180.06;4832622;29;20045;-83
2022/11/18 08:46:14;;;;;;;27.25;13.15;;;;;;;5.63;100.00;97173.84;4845248;29;20049;-83
2022/11/18 08:48:59;;;;;;;23.15;12.75;;;;;;;5.39;100.00;97172.91;4841812;29;20047;-80
2022/11/18 08:51:44;;;;;;;27.35;13.55;;;;;;;5.27;100.00;97173.81;4856253;29;20488;-80
2022/11/18 08:54:30;;;;;;;29.50;13.60;;;;;;;5.38;100.00;97181.66;4869212;29;20560;-79
2022/11/18 08:57:14;;;;;;;25.58;13.70;;;;;;;5.02;100.00;97180.75;4844414;29;20187;-81
2022/11/18 08:59:59;;;;;;;23.23;13.65;;;;;;;5.48;100.00;97189.59;4868390;29;20053;-81
2022/11/18 09:02:44;;;;;;;25.17;12.30;;;;;;;5.64;100.00;97180.69;4856403;29;20049;-80
2022/11/18 09:05:28;;;;;;;24.85;13.23;;;;;;;5.51;100.00;97188.53;4832308;29;20194;-81
2022/11/18 09:08:14;;;;;;;27.85;12.75;;;;;;;5.52;100.00;97180.63;4875778;29;20441;-79
2022/11/18 09:11:05;;;;;;;28.88;12.75;;;;;;;6.01;100.00;97182.28;4875234;29;20041;-82
2022/11/18 09:13:55;;;;;;;22.38;11.80;;;;;;;6.78;100.00;97174.78;4865569;29;20557;-81
2022/11/18 09:16:39;;;;;;;24.13;12.52;;;;;;;6.15;100.00;97178.69;4862982;29;20061;-84
2022/11/18 09:19:24;;;;;;;25.00;12.77;;;;;;;5.73;100.00;97173.97;4890850;29;20127;-83
2022/11/18 09:22:09;;;;;;;24.27;11.75;;;;;;;5.28;100.00;97170.25;4861857;29;20170;-81
2022/11/18 09:24:54;;;;;;;24.35;12.00;;;;;;;5.63;100.00;97173.84;4873824;29;20053;-79
2022/11/18 09:27:38;;;;;;;21.67;11.10;;;;;;;5.42;100.00;97159.69;4861118;29;20064;-82
2022/11/18 09:30:23;;;;;;;20.25;11.07;;;;;;;4.86;100.00;97158.50;4872815;29;20516;-80
2022/11/18 09:33:08;;;;;;;19.67;10.35;;;;;;;5.13;100.00;97146.22;4878130;29;20094;-83
2022/11/18 09:35:53;;;;;;;23.40;10.15;;;;;;;5.65;100.00;97148.53;4876644;29;20123;-81
2022/11/18 09:38:37;;;;;;;18.08;9.75;;;;;;;5.59;100.00;97152.44;4863555;29;20044;-79
2022/11/18 09:41:43;;;;;;;21.17;10.63;;;;;;;5.67;100.00;97159.66;4884718;29;20508;-82
2022/11/18 09:44:45;;;;;;;20.58;10.02;;;;;;;4.98;100.00;97155.97;4889281;29;20074;-79
2022/11/18 09:47:33;;;;;;;18.42;9.75;;;;;;;4.72;100.00;97138.69;4877902;29;20055;-81
2022/11/18 09:50:21;;;;;;;21.15;10.18;;;;;;;4.70;100.00;97142.34;4873561;29;20053;-82
2022/11/18 09:53:19;;;;;;;20.75;9.65;;;;;;;4.77;100.00;97133.16;4872635;29;20048;-82
2022/11/18 09:56:07;;;;;;;23.25;10.52;;;;;;;4.65;100.00;97146.06;4860988;29;20040;-82
2022/11/18 09:58:52;;;;;;;22.33;10.10;;;;;;;4.47;100.00;97144.78;4874758;29;20052;-84
2022/11/18 10:01:36;;;;;;;19.52;9.52;;;;;;;5.30;100.00;97148.41;4885379;29;20068;-82
2022/11/18 10:04:21;;;;;;;23.00;11.05;;;;;;;4.81;100.00;97150.19;4862980;29;20167;-81
2022/11/18 10:07:17;;;;;;;23.23;10.82;;;;;;;4.52;100.00;97153.06;4885537;29;20137;-80
2022/11/18 10:10:14;;;;;;;28.08;12.07;;;;;;;4.77;100.00;97151.34;4884789;29;20132;-84
2022/11/18 10:13:32;;;;;;;22.98;10.15;;;;;;;4.95;100.00;97146.59;4879205;29;20060;-81
2022/11/18 10:16:47;;;;;;;23.25;10.57;;;;;;;4.96;100.00;97142.25;4875138;29;20051;-83
2022/11/18 10:19:55;;;;;;;24.45;11.45;;;;;;;4.99;100.00;97137.69;4879223;29;20052;-83
2022/11/18 10:23:36;;;;;;;20.52;9.88;;;;;;;5.41;100.00;97139.03;4894738;29;20059;-85
2022/11/18 10:26:36;;;;;;;19.38;9.68;;;;;;;5.33;100.00;97136.16;4876821;29;20059;-88
2022/11/18 10:29:22;;;;;;;21.20;10.63;;;;;;;5.76;100.00;97140.78;4882936;29;20099;-87
2022/11/18 10:32:12;;;;;;;24.13;10.40;;;;;;;5.80;100.00;97143.97;4864221;29;20045;-87
2022/11/18 10:35:00;;;;;;;23.50;11.60;;;;;;;5.69;100.00;97141.34;4888611;29;20044;-87
2022/11/18 10:38:13;;;;;;;21.52;9.38;;;;;;;5.40;100.00;97147.78;4876850;29;20051;-83
2022/11/18 10:41:12;;;;;;;20.95;10.10;;;;;;;5.29;100.00;97143.34;4891301;29;20084;-82
2022/11/18 10:44:30;;;;;;;17.77;9.00;;;;;;;5.00;100.00;97154.06;4878105;29;20045;-90
2022/11/18 10:47:26;;;;;;;21.25;9.57;;;;;;;4.94;100.00;97163.13;4890702;29;20130;-85
2022/11/18 10:50:31;;;;;;;19.33;9.57;;;;;;;5.01;100.00;97153.94;4868163;29;20120;-86
2022/11/18 10:53:34;;;;;;;18.63;8.23;;;;;;;5.08;100.00;97145.72;4893454;29;20049;-89
2022/11/18 10:57:03;;;;;;;20.55;8.80;;;;;;;4.83;100.00;97150.09;4866598;29;20055;-89
2022/11/18 10:59:57;;;;;;;18.35;8.82;;;;;;;4.78;100.00;97143.44;4878705;29;20044;-87
2022/11/18 11:02:45;;;;;;;19.45;9.13;;;;;;;4.77;100.00;97146.13;4865410;29;20040;-88
2022/11/18 11:05:30;;;;;;;20.15;9.00;;;;;;;4.65;100.00;97140.88;4869695;29;20157;-87
2022/11/18 11:08:22;;;;;;;24.60;9.52;;;;;;;4.63;100.00;97140.19;4872750;29;20057;-89
2022/11/18 11:11:24;;;;;;;22.63;9.67;;;;;;;4.90;100.00;97133.13;4883963;29;20052;-87
2022/11/18 11:14:41;;;;;;;22.17;9.38;;;;;;;5.01;100.00;97135.78;4878583;29;20044;-84
2022/11/18 11:21:28;;;;;;;21.23;9.25;;;;;;;4.88;100.00;97127.22;5086823;23;20054;-86
2022/11/18 11:28:37;;;;;;;20.48;9.32;;;;;;;4.90;100.00;97120.16;4857548;29;20053;-84
2022/11/18 11:32:03;;;;;;;20.48;8.65;;;;;;;4.88;100.00;97125.44;4827533;29;20875;-84
2022/11/18 11:35:22;;;;;;;18.52;8.73;;;;;;;4.99;100.00;97123.88;4857326;29;20545;-85
2022/11/18 11:38:33;;;;;;;23.15;8.80;;;;;;;4.79;100.00;97116.56;4870439;29;20050;-85
2022/11/18 11:41:25;;;;;;;16.23;8.20;;;;;;;4.60;100.00;97122.25;4847263;29;20618;-83
2022/11/18 11:44:46;;;;;;;18.65;8.77;;;;;;;5.00;100.00;97115.97;4869020;29;20053;-81
2022/11/18 11:47:55;;;;;;;19.67;9.65;;;;;;;4.77;100.00;97120.19;4830678;29;20068;-82
2022/11/18 11:51:23;;;;;;;19.25;9.00;;;;;;;4.75;100.00;97116.91;4825823;29;20053;-84
2022/11/18 11:54:22;;;;;;;19.58;9.00;;;;;;;4.83;100.00;97116.34;4831118;29;20098;-84
2022/11/18 11:58:05;;;;;;;18.42;8.93;;;;;;;4.70;100.00;97114.59;4844708;29;20053;-87
2022/11/18 12:01:17;;;;;;;18.38;7.97;;;;;;;4.87;100.00;97116.00;4835322;29;20053;-83
2022/11/18 12:04:35;;;;;;;18.10;8.35;;;;;;;5.14;100.00;97111.56;4826886;29;20056;-86
2022/11/18 12:07:33;;;;;;;16.05;7.82;;;;;;;5.06;100.00;97104.28;4893160;29;20070;-86
2022/11/18 12:10:35;;;;;;;16.90;8.00;;;;;;;5.04;100.00;97104.41;4875881;29;20064;-86
2022/11/18 12:13:47;;;;;;;14.98;7.00;;;;;;;5.18;100.00;97094.78;4867070;29;20133;-86
2022/11/18 12:17:02;;;;;;;12.35;6.72;;;;;;;5.10;100.00;97089.31;4864279;29;20048;-85
2022/11/18 12:19:47;;;;;;;11.77;5.57;;;;;;;5.13;100.00;97081.31;4865540;29;20615;-86
2022/11/18 12:23:08;;;;;;;13.00;6.47;;;;;;;5.06;100.00;97075.75;4872851;29;20083;-86
2022/11/18 12:25:59;;;;;;;12.82;5.88;;;;;;;5.17;100.00;97090.56;4860912;29;20059;-85
2022/11/18 12:28:44;;;;;;;14.68;6.38;;;;;;;5.19;100.00;97091.25;4866860;29;20102;-84
2022/11/18 12:31:34;;;;;;;14.38;7.22;;;;;;;5.20;100.00;97087.72;4844744;29;20053;-84
2022/11/18 12:34:24;;;;;;;14.52;6.78;;;;;;;5.15;100.00;97079.44;4860230;29;20429;-86
2022/11/18 12:37:25;;;;;;;10.82;5.07;;;;;;;5.15;100.00;97087.22;4876628;29;20065;-84
2022/11/18 12:40:35;;;;;;;11.18;5.63;;;;;;;4.89;100.00;97084.75;4883912;29;20445;-84
2022/11/18 12:43:45;;;;;;;10.05;4.78;;;;;;;5.04;100.00;97085.44;4862005;29;20140;-88
2022/11/18 12:46:45;;;;;;;11.33;5.30;;;;;;;5.08;100.00;97091.19;4879982;29;20048;-87
2022/11/18 12:49:31;;;;;;;8.85;4.10;;;;;;;5.09;100.00;97096.31;4851340;29;20061;-87
2022/11/18 12:52:29;;;;;;;9.35;4.68;;;;;;;5.14;100.00;97101.16;4849597;29;20057;-88
2022/11/18 12:55:20;;;;;;;9.90;4.97;;;;;;;4.98;100.00;97098.84;4845424;29;20103;-86
2022/11/18 12:58:21;;;;;;;9.27;4.80;;;;;;;4.89;100.00;97097.75;4860962;29;20160;-88
2022/11/18 13:01:10;;;;;;;7.20;4.05;;;;;;;4.75;100.00;97099.53;4882264;29;20047;-89
2022/11/18 13:04:14;;;;;;;7.03;4.10;;;;;;;4.84;100.00;97098.06;4869550;29;20056;-89
2022/11/18 13:07:01;;;;;;;8.85;4.20;;;;;;;4.64;100.00;97089.09;4891820;29;20524;-90
2022/11/18 13:09:46;;;;;;;7.32;4.05;;;;;;;4.73;100.00;97090.22;4885422;29;20083;-86
2022/11/18 13:12:32;;;;;;;8.40;4.35;;;;;;;4.54;100.00;97101.88;4881838;29;20044;-88
2022/11/18 13:18:21;;;;;;;9.70;5.00;;;;;;;4.72;100.00;97096.38;4880314;29;20078;-89
2022/11/18 13:24:17;;;;;;;10.38;4.88;;;;;;;4.50;100.00;97097.88;4895433;29;20040;-85
2022/11/18 13:27:17;;;;;;;9.73;5.03;;;;;;;4.46;100.00;97093.81;4879466;29;20036;-86
2022/11/18 13:30:15;;;;;;;8.57;4.75;;;;;;;4.37;100.00;97082.34;4929710;29;20040;-85
2022/11/18 13:33:10;;;;;;;10.40;5.15;;;;;;;4.35;100.00;97089.41;4885114;29;20048;-87
2022/11/18 13:35:56;;;;;;;10.50;5.93;;;;;;;4.46;100.00;97081.69;4892416;29;20044;-85